Time;durP1;ratioP1;P1;durP2;ratioP2;P2;SDS_P1;SDS_P2;PMS_P1;PMS_P2;Temp;Humidity;BMP_temperature;BMP_pressure;BME280_temperature;BME280_humidity;BME280_pressure;Samples;Min_cycle;Max_cycle;Signal;HPM_P1;HPM_P2
2022/05/17 00:01:26;;;;;;;10.97;6.07;;;22.40;58.80;;;;;;5054359;28;20440;-87
2022/05/17 00:03:55;;;;;;;9.63;6.07;;;22.20;59.70;;;;;;5063144;28;20455;-86
2022/05/17 00:06:22;;;;;;;6.57;4.87;;;22.30;59.30;;;;;;5068188;28;20444;-88
2022/05/17 00:08:49;;;;;;;7.33;6.50;;;22.20;58.90;;;;;;5048327;28;20454;-88
2022/05/17 00:11:16;;;;;;;7.57;5.43;;;22.10;58.60;;;;;;5042657;28;20488;-88
2022/05/17 00:13:43;;;;;;;7.87;6.13;;;21.80;59.30;;;;;;5060585;28;20981;-88
2022/05/17 00:16:11;;;;;;;6.90;5.73;;;21.90;58.90;;;;;;5069479;28;20981;-88
2022/05/17 00:18:38;;;;;;;6.57;5.87;;;21.80;58.60;;;;;;5060286;28;21254;-88
2022/05/17 00:21:07;;;;;;;8.50;6.23;;;21.80;58.90;;;;;;5050436;28;20791;-85
2022/05/17 00:23:36;;;;;;;8.53;5.73;;;21.90;58.60;;;;;;5043189;28;20475;-87
2022/05/17 00:26:04;;;;;;;6.77;5.50;;;21.80;58.80;;;;;;5053959;28;20497;-87
2022/05/17 00:28:31;;;;;;;7.93;5.80;;;21.90;58.60;;;;;;5087200;28;20443;-87
2022/05/17 00:31:00;;;;;;;11.23;5.37;;;21.90;58.00;;;;;;5089422;28;20458;-87
2022/05/17 00:33:27;;;;;;;6.70;6.00;;;22.00;57.90;;;;;;5061723;28;20464;-88
2022/05/17 00:35:54;;;;;;;10.90;6.73;;;22.00;57.80;;;;;;5053760;28;20459;-87
2022/05/17 00:38:23;;;;;;;6.90;5.90;;;22.10;57.50;;;;;;5050250;28;20542;-88
2022/05/17 00:40:50;;;;;;;7.07;5.57;;;22.10;57.40;;;;;;5067913;28;20459;-88
2022/05/17 00:43:29;;;;;;;9.33;6.07;;;22.10;57.20;;;;;;5061410;28;20479;-88
2022/05/17 00:46:02;;;;;;;7.70;5.87;;;22.10;57.40;;;;;;5052806;28;20451;-88
2022/05/17 00:48:30;;;;;;;9.47;6.00;;;22.10;57.40;;;;;;5055211;28;21232;-88
2022/05/17 00:50:57;;;;;;;9.00;6.03;;;22.10;57.30;;;;;;5059878;28;20454;-87
2022/05/17 00:53:28;;;;;;;10.97;6.93;;;22.10;57.30;;;;;;5036553;28;20476;-87
2022/05/17 00:55:58;;;;;;;6.53;5.90;;;22.10;57.30;;;;;;5070371;28;20816;-86
2022/05/17 00:58:28;;;;;;;9.53;6.83;;;22.00;57.20;;;;;;5068708;28;20542;-88
2022/05/17 01:01:02;;;;;;;10.10;7.47;;;22.00;57.00;;;;;;5041318;28;20467;-88
2022/05/17 01:03:34;;;;;;;7.27;6.30;;;21.90;57.00;;;;;;5052681;28;20473;-88
2022/05/17 01:06:03;;;;;;;8.00;6.73;;;21.80;57.40;;;;;;5088249;28;20467;-87
2022/05/17 01:08:31;;;;;;;6.87;5.80;;;21.80;57.30;;;;;;5040755;28;20436;-89
2022/05/17 01:10:58;;;;;;;7.67;6.90;;;21.80;57.30;;;;;;5070969;28;20455;-87
2022/05/17 01:16:10;;;;;;;9.73;6.23;;;21.80;56.90;;;;;;5087108;28;20431;-86
2022/05/17 01:18:40;;;;;;;10.43;7.00;;;21.70;56.80;;;;;;5068696;28;20457;-87
2022/05/17 01:21:10;;;;;;;13.60;7.20;;;21.70;56.90;;;;;;5087326;28;21054;-87
2022/05/17 01:23:36;;;;;;;7.00;6.30;;;21.60;57.00;;;;;;5062311;28;21001;-88
2022/05/17 01:26:04;;;;;;;9.73;7.03;;;21.60;57.00;;;;;;5061966;28;20480;-88
2022/05/17 01:28:34;;;;;;;11.47;7.87;;;21.50;57.20;;;;;;5050008;28;20806;-87
2022/05/17 01:31:05;;;;;;;9.50;7.37;;;20.80;58.50;;;;;;5061626;28;20452;-87
2022/05/17 01:33:33;;;;;;;6.60;6.00;;;20.80;59.00;;;;;;5072379;28;20459;-88
2022/05/17 01:36:01;;;;;;;9.43;6.87;;;21.00;58.30;;;;;;5062721;28;20451;-88
2022/05/17 01:38:30;;;;;;;10.63;6.53;;;21.10;57.80;;;;;;5055561;28;20448;-87
2022/05/17 01:40:57;;;;;;;8.70;5.97;;;21.20;57.50;;;;;;5053064;28;20458;-89
2022/05/17 01:43:24;;;;;;;7.03;5.53;;;21.30;57.30;;;;;;5067230;28;20467;-87
2022/05/17 01:45:51;;;;;;;10.63;6.80;;;21.30;57.40;;;;;;5067125;28;20455;-87
2022/05/17 01:48:19;;;;;;;9.27;6.80;;;21.30;57.10;;;;;;5041324;28;20443;-88
2022/05/17 01:50:46;;;;;;;8.63;7.40;;;21.30;56.90;;;;;;5087655;28;20454;-88
2022/05/17 01:53:13;;;;;;;9.43;6.40;;;21.30;56.90;;;;;;5042222;28;22288;-89
2022/05/17 01:55:42;;;;;;;7.73;6.40;;;21.30;56.90;;;;;;5050599;28;20477;-89
2022/05/17 01:58:09;;;;;;;7.77;6.60;;;21.30;56.60;;;;;;5051020;28;20536;-88
2022/05/17 02:00:37;;;;;;;9.97;6.77;;;21.30;56.50;;;;;;5067695;28;20461;-88
2022/05/17 02:03:04;;;;;;;11.47;7.00;;;21.20;56.60;;;;;;5069120;28;21282;-88
2022/05/17 02:05:31;;;;;;;8.30;7.00;;;21.30;56.70;;;;;;5057062;28;20464;-89
2022/05/17 02:07:58;;;;;;;8.27;6.50;;;21.20;56.80;;;;;;5038311;28;20479;-87
2022/05/17 02:10:25;;;;;;;10.37;6.77;;;21.20;56.60;;;;;;5060113;28;20580;-89
2022/05/17 02:12:56;;;;;;;12.53;6.90;;;21.10;56.30;;;;;;5072064;28;20467;-88
2022/05/17 02:15:23;;;;;;;6.40;5.70;;;21.00;56.50;;;;;;5036524;28;20435;-88
2022/05/17 02:17:50;;;;;;;7.03;6.13;;;21.00;57.00;;;;;;5089060;28;21185;-89
2022/05/17 02:20:18;;;;;;;8.67;7.00;;;21.00;56.90;;;;;;5050392;28;20458;-88
2022/05/17 02:22:45;;;;;;;15.67;7.33;;;20.90;57.10;;;;;;5065023;28;20845;-87
2022/05/17 02:25:13;;;;;;;7.30;6.30;;;20.90;57.00;;;;;;5047017;28;20824;-88
2022/05/17 02:27:40;;;;;;;8.23;7.20;;;20.90;56.90;;;;;;5073379;28;20442;-88
2022/05/17 02:30:12;;;;;;;8.03;6.37;;;20.90;57.00;;;;;;5081087;28;20451;-89
2022/05/17 02:32:40;;;;;;;7.57;6.83;;;20.90;57.30;;;;;;5072844;28;20482;-88
2022/05/17 02:35:09;;;;;;;8.00;6.20;;;20.90;57.00;;;;;;5070207;28;20453;-89
2022/05/17 02:37:36;;;;;;;7.80;6.07;;;20.90;57.20;;;;;;5089608;28;21308;-88
2022/05/17 02:40:05;;;;;;;7.77;7.07;;;20.90;56.80;;;;;;5071403;28;20450;-88
2022/05/17 02:42:31;;;;;;;11.20;6.70;;;20.90;56.50;;;;;;5070971;28;20637;-88
2022/05/17 02:44:58;;;;;;;7.50;6.70;;;20.90;56.50;;;;;;5087482;28;20477;-89
2022/05/17 02:47:27;;;;;;;9.03;7.30;;;20.80;56.50;;;;;;5072548;28;20461;-89
2022/05/17 02:49:54;;;;;;;11.73;6.60;;;20.80;56.50;;;;;;5073495;28;20447;-84
2022/05/17 02:52:21;;;;;;;7.37;6.50;;;20.70;56.50;;;;;;5070703;28;20471;-88
2022/05/17 02:54:48;;;;;;;7.53;6.70;;;20.70;56.70;;;;;;5081020;28;20785;-89
2022/05/17 02:57:15;;;;;;;12.37;7.37;;;20.70;56.70;;;;;;5093814;28;20965;-84
2022/05/17 02:59:42;;;;;;;8.60;7.53;;;20.60;56.60;;;;;;5064645;28;20447;-89
2022/05/17 03:02:09;;;;;;;17.60;7.50;;;20.60;57.30;;;;;;5081311;28;20477;-88
2022/05/17 03:04:38;;;;;;;9.17;7.70;;;20.60;57.40;;;;;;5049324;28;20537;-88
2022/05/17 03:07:05;;;;;;;13.90;6.83;;;20.60;57.50;;;;;;5064517;28;20458;-88
2022/05/17 03:09:32;;;;;;;8.40;6.93;;;20.60;57.50;;;;;;5052439;28;21271;-88
2022/05/17 03:12:02;;;;;;;7.73;6.53;;;20.60;56.80;;;;;;5049379;28;21151;-88
2022/05/17 03:14:29;;;;;;;10.50;6.53;;;20.50;56.70;;;;;;5076587;28;21213;-89
2022/05/17 03:16:56;;;;;;;7.70;6.33;;;20.50;56.80;;;;;;5055780;28;20483;-89
2022/05/17 03:19:24;;;;;;;13.63;7.87;;;20.40;58.20;;;;;;5045290;28;21112;-88
2022/05/17 03:21:52;;;;;;;11.87;7.50;;;20.30;58.50;;;;;;5056510;28;20463;-89
2022/05/17 03:24:19;;;;;;;11.77;7.93;;;20.30;58.70;;;;;;5062787;28;20977;-88
2022/05/17 03:26:46;;;;;;;9.67;7.50;;;20.10;58.10;;;;;;5076952;28;20473;-88
2022/05/17 03:29:12;;;;;;;11.90;7.60;;;20.20;57.80;;;;;;5054153;28;20841;-87
2022/05/17 03:31:39;;;;;;;8.90;7.23;;;20.30;57.40;;;;;;5060528;28;21290;-89
2022/05/17 03:34:06;;;;;;;9.63;7.07;;;20.30;56.90;;;;;;5078044;28;20460;-88
2022/05/17 03:36:33;;;;;;;12.00;7.90;;;20.30;56.70;;;;;;5054801;28;20455;-88
2022/05/17 03:39:01;;;;;;;9.20;6.00;;;20.30;56.40;;;;;;5073117;28;20470;-89
2022/05/17 03:41:28;;;;;;;11.73;6.43;;;20.30;56.20;;;;;;5042751;28;20855;-87
2022/05/17 03:43:55;;;;;;;8.20;6.57;;;20.30;56.30;;;;;;5074183;28;20447;-87
2022/05/17 03:46:22;;;;;;;11.20;7.07;;;20.20;56.20;;;;;;5088566;28;21182;-89
2022/05/17 03:48:49;;;;;;;7.90;6.70;;;20.20;56.50;;;;;;5071636;28;20480;-88
2022/05/17 03:51:19;;;;;;;10.53;7.33;;;20.20;56.50;;;;;;5072638;28;20501;-87
2022/05/17 03:53:47;;;;;;;7.57;6.67;;;20.10;56.40;;;;;;5082226;28;20455;-87
2022/05/17 03:56:16;;;;;;;10.57;6.53;;;20.10;56.40;;;;;;5051833;28;20472;-88
2022/05/17 03:58:43;;;;;;;9.30;7.30;;;20.10;56.40;;;;;;5056753;28;21029;-88
2022/05/17 04:01:12;;;;;;;11.40;7.33;;;20.10;56.30;;;;;;5069562;28;21192;-88
2022/05/17 04:03:39;;;;;;;7.40;6.70;;;20.10;56.40;;;;;;5060939;28;20565;-87
2022/05/17 04:06:06;;;;;;;13.33;7.43;;;20.00;56.40;;;;;;5070206;28;20456;-88
2022/05/17 04:08:34;;;;;;;8.50;7.43;;;20.00;56.90;;;;;;5080415;28;21001;-88
2022/05/17 04:11:01;;;;;;;9.57;8.10;;;20.00;57.20;;;;;;5075143;28;20451;-87
2022/05/17 04:13:31;;;;;;;9.60;7.30;;;20.00;57.00;;;;;;5071487;28;20474;-86
2022/05/17 04:15:58;;;;;;;9.00;7.17;;;20.00;57.30;;;;;;5063062;28;20443;-88
2022/05/17 04:18:26;;;;;;;18.43;9.03;;;20.00;57.30;;;;;;5057115;28;20495;-86
2022/05/17 04:20:58;;;;;;;62.57;11.00;;;20.00;57.50;;;;;;5041258;28;20455;-87
2022/05/17 04:23:25;;;;;;;22.80;8.87;;;20.00;58.90;;;;;;5069620;28;20787;-87
2022/05/17 04:25:52;;;;;;;12.10;8.07;;;19.90;59.10;;;;;;5064023;28;20933;-87
2022/05/17 04:28:19;;;;;;;71.73;11.93;;;19.90;59.20;;;;;;5055990;28;20529;-88
2022/05/17 04:30:48;;;;;;;39.90;12.60;;;19.90;59.50;;;;;;5052629;28;20442;-88
2022/05/17 04:33:15;;;;;;;28.70;10.10;;;19.40;61.20;;;;;;5054232;28;21067;-87
2022/05/17 04:35:43;;;;;;;12.33;8.50;;;19.10;61.80;;;;;;5034263;28;20548;-87
2022/05/17 04:38:10;;;;;;;15.60;9.23;;;18.80;63.00;;;;;;5064195;28;20572;-88
2022/05/17 04:40:39;;;;;;;11.80;8.53;;;19.10;62.60;;;;;;5045930;28;20451;-88
2022/05/17 04:43:06;;;;;;;11.17;8.50;;;19.30;61.40;;;;;;5057687;28;20510;-88
2022/05/17 04:45:33;;;;;;;12.00;9.40;;;19.60;60.30;;;;;;5055358;28;20456;-88
2022/05/17 04:48:02;;;;;;;19.93;8.53;;;19.70;59.70;;;;;;5060647;28;20443;-88
2022/05/17 04:50:30;;;;;;;9.20;8.00;;;19.90;59.30;;;;;;5055762;28;20442;-88
2022/05/17 04:52:56;;;;;;;10.80;7.97;;;19.90;59.20;;;;;;5090076;28;20475;-87
2022/05/17 04:55:24;;;;;;;10.10;7.73;;;20.00;58.90;;;;;;5060772;28;20451;-88
2022/05/17 04:57:51;;;;;;;10.03;8.63;;;20.10;58.70;;;;;;5037986;28;20506;-88
2022/05/17 05:00:21;;;;;;;11.97;9.10;;;20.10;58.50;;;;;;5069797;28;20447;-88
2022/05/17 05:02:48;;;;;;;12.90;9.30;;;20.10;58.40;;;;;;5055092;28;21177;-89
2022/05/17 05:05:17;;;;;;;9.97;8.63;;;20.10;58.40;;;;;;5065476;28;20460;-88
2022/05/17 05:07:44;;;;;;;15.53;8.20;;;20.10;58.70;;;;;;5069570;28;20479;-88
2022/05/17 05:10:12;;;;;;;14.40;8.77;;;20.10;58.90;;;;;;5089552;28;20455;-88
2022/05/17 05:12:40;;;;;;;12.17;8.30;;;20.10;58.80;;;;;;5070293;28;20462;-88
2022/05/17 05:15:09;;;;;;;12.90;8.70;;;20.10;58.80;;;;;;5058556;28;20447;-88
2022/05/17 05:17:38;;;;;;;15.53;9.30;;;20.20;58.80;;;;;;5071659;28;20868;-88
2022/05/17 05:20:07;;;;;;;9.93;8.70;;;20.30;59.00;;;;;;5087842;28;20813;-88
2022/05/17 05:22:36;;;;;;;11.67;8.50;;;20.30;59.10;;;;;;5055841;28;20475;-87
2022/05/17 05:25:04;;;;;;;12.17;9.70;;;20.30;59.40;;;;;;5073218;28;20451;-87
2022/05/17 05:27:33;;;;;;;9.60;8.60;;;20.40;59.70;;;;;;5069957;28;20470;-89
2022/05/17 05:30:01;;;;;;;10.83;8.97;;;20.50;59.80;;;;;;5089507;28;20930;-86
2022/05/17 05:32:27;;;;;;;12.03;8.70;;;20.50;60.10;;;;;;5090388;28;20474;-87
2022/05/17 05:34:54;;;;;;;10.27;8.80;;;20.60;60.00;;;;;;5087959;28;20443;-88
2022/05/17 05:37:21;;;;;;;14.03;8.47;;;20.70;60.10;;;;;;5062387;28;20482;-87
2022/05/17 05:39:51;;;;;;;10.00;8.37;;;20.80;60.20;;;;;;5061677;28;20451;-88
2022/05/17 05:42:18;;;;;;;11.27;8.20;;;20.60;60.90;;;;;;5056394;28;20501;-88
2022/05/17 05:44:45;;;;;;;14.70;9.40;;;20.70;60.80;;;;;;5067473;28;20446;-88
2022/05/17 05:47:12;;;;;;;10.27;8.80;;;20.70;60.70;;;;;;5054852;28;20993;-88
2022/05/17 05:49:39;;;;;;;10.20;8.20;;;20.80;61.30;;;;;;5050128;28;20474;-86
2022/05/17 05:52:07;;;;;;;10.40;9.23;;;20.90;60.50;;;;;;5070335;28;20493;-89
2022/05/17 05:54:34;;;;;;;10.93;9.00;;;20.80;60.50;;;;;;5039676;28;20448;-88
2022/05/17 05:57:02;;;;;;;9.80;8.40;;;20.60;61.60;;;;;;5077224;28;20460;-89
2022/05/17 05:59:30;;;;;;;10.23;8.60;;;20.60;61.60;;;;;;5058990;28;20491;-88
2022/05/17 06:01:58;;;;;;;12.67;9.33;;;20.60;60.90;;;;;;5091435;28;21063;-88
2022/05/17 06:04:27;;;;;;;12.10;9.47;;;20.70;60.90;;;;;;5043236;28;21037;-86
2022/05/17 06:06:56;;;;;;;12.97;9.10;;;20.70;60.80;;;;;;5090101;28;20457;-87
2022/05/17 06:09:24;;;;;;;11.97;9.30;;;20.80;60.80;;;;;;5063496;28;20467;-88
2022/05/17 06:11:51;;;;;;;9.57;8.50;;;21.10;60.50;;;;;;5062805;28;20450;-87
2022/05/17 06:14:20;;;;;;;15.60;10.03;;;21.10;60.90;;;;;;5063195;28;20459;-86
2022/05/17 06:16:47;;;;;;;13.63;9.93;;;21.40;60.20;;;;;;5092121;28;20443;-86
2022/05/17 06:19:14;;;;;;;20.73;9.37;;;21.70;59.70;;;;;;5064314;28;21005;-86
2022/05/17 06:21:41;;;;;;;12.00;9.13;;;21.70;59.40;;;;;;5063642;28;20853;-86
2022/05/17 06:24:08;;;;;;;10.17;9.03;;;21.60;59.50;;;;;;5070314;28;20559;-86
2022/05/17 06:26:36;;;;;;;10.73;9.63;;;21.50;60.00;;;;;;5075305;28;20451;-86
2022/05/17 06:29:04;;;;;;;12.50;8.53;;;21.40;60.40;;;;;;5059189;28;20450;-86
2022/05/17 06:31:32;;;;;;;10.10;8.67;;;21.80;59.70;;;;;;5066638;28;20450;-86
2022/05/17 06:33:59;;;;;;;10.10;9.00;;;22.10;59.60;;;;;;5047642;28;20458;-85
2022/05/17 06:36:26;;;;;;;12.50;9.17;;;22.20;59.40;;;;;;5091816;27;20455;-86
2022/05/17 06:38:54;;;;;;;13.47;9.77;;;22.40;59.40;;;;;;5048606;28;20464;-87
2022/05/17 06:41:21;;;;;;;10.83;8.43;;;22.40;58.10;;;;;;5075523;28;20954;-86
2022/05/17 06:43:48;;;;;;;12.63;8.20;;;22.30;58.80;;;;;;5073917;28;21040;-86
2022/05/17 06:46:15;;;;;;;9.00;8.10;;;22.30;58.90;;;;;;5054073;28;20473;-84
2022/05/17 06:48:43;;;;;;;16.60;9.40;;;22.10;58.90;;;;;;5081329;28;20451;-86
2022/05/17 06:51:10;;;;;;;9.93;8.30;;;22.20;58.00;;;;;;5081440;28;20452;-86
2022/05/17 06:53:38;;;;;;;11.90;9.37;;;22.40;57.80;;;;;;5041830;28;21149;-85
2022/05/17 06:56:06;;;;;;;13.23;8.80;;;22.70;58.00;;;;;;5064594;28;20443;-87
2022/05/17 06:58:33;;;;;;;11.17;8.83;;;22.70;57.70;;;;;;5071784;28;20471;-87
2022/05/17 07:01:00;;;;;;;22.73;9.67;;;22.60;58.60;;;;;;5061970;28;20458;-87
2022/05/17 07:03:27;;;;;;;11.43;9.30;;;22.60;58.90;;;;;;5055893;28;20471;-86
2022/05/17 07:05:55;;;;;;;21.37;8.77;;;22.50;58.40;;;;;;5064101;28;20961;-86
2022/05/17 07:08:22;;;;;;;9.63;8.23;;;22.50;58.80;;;;;;5090245;28;21007;-87
2022/05/17 07:13:33;;;;;;;13.73;8.83;;;22.80;59.20;;;;;;5080836;28;20459;-87
2022/05/17 07:16:01;;;;;;;14.20;8.53;;;22.80;58.50;;;;;;5090564;28;20451;-88
2022/05/17 07:18:28;;;;;;;10.50;9.13;;;22.90;59.00;;;;;;5071201;28;20462;-87
2022/05/17 07:20:58;;;;;;;12.57;9.20;;;23.30;58.40;;;;;;5063068;28;20442;-88
2022/05/17 07:23:26;;;;;;;10.17;8.30;;;23.60;57.80;;;;;;5087027;28;20692;-87
2022/05/17 07:25:55;;;;;;;10.00;9.00;;;23.90;57.70;;;;;;5074629;28;21262;-88
2022/05/17 07:28:23;;;;;;;11.13;8.80;;;24.20;55.90;;;;;;5089999;28;20448;-87
2022/05/17 07:30:51;;;;;;;10.93;8.27;;;23.90;55.90;;;;;;5076857;28;20939;-87
2022/05/17 07:33:20;;;;;;;8.30;7.50;;;23.90;56.50;;;;;;5036356;28;20475;-88
2022/05/17 07:35:48;;;;;;;12.13;7.87;;;23.80;56.80;;;;;;5073372;28;20455;-88
2022/05/17 07:38:18;;;;;;;9.77;8.37;;;23.70;56.50;;;;;;5054300;28;20431;-85
2022/05/17 07:40:45;;;;;;;11.20;7.50;;;23.90;56.30;;;;;;5058649;28;20468;-87
2022/05/17 07:43:12;;;;;;;11.43;8.27;;;24.00;56.40;;;;;;5089428;28;20858;-87
2022/05/17 07:45:39;;;;;;;8.93;6.57;;;23.90;56.10;;;;;;5054375;28;20440;-87
2022/05/17 07:48:08;;;;;;;7.87;6.43;;;24.00;55.90;;;;;;5055309;28;20456;-87
2022/05/17 07:50:35;;;;;;;8.07;7.07;;;24.30;55.00;;;;;;5045964;28;21196;-88
2022/05/17 07:53:08;;;;;;;9.93;6.40;;;24.60;54.30;;;;;;5071920;28;21189;-88
2022/05/17 07:55:38;;;;;;;12.50;7.07;;;24.50;54.20;;;;;;5056161;28;20497;-87
2022/05/17 07:58:06;;;;;;;7.67;5.33;;;24.30;54.80;;;;;;5080760;28;20509;-88
2022/05/17 08:00:34;;;;;;;7.60;6.90;;;24.30;54.30;;;;;;5070278;28;20924;-87
2022/05/17 08:03:02;;;;;;;7.13;6.43;;;24.30;54.50;;;;;;5074920;28;20773;-88
2022/05/17 08:05:29;;;;;;;8.77;5.33;;;24.40;54.40;;;;;;5090047;28;20459;-88
2022/05/17 08:07:58;;;;;;;5.03;4.50;;;24.40;53.20;;;;;;5087572;28;20466;-86
2022/05/17 08:10:26;;;;;;;6.97;4.63;;;24.50;52.50;;;;;;5072371;28;20462;-88
2022/05/17 08:12:56;;;;;;;9.00;6.10;;;24.70;50.00;;;;;;5053015;28;21119;-85
2022/05/17 08:15:24;;;;;;;9.03;4.60;;;24.80;48.30;;;;;;5057102;28;20427;-88
2022/05/17 08:17:51;;;;;;;5.10;4.37;;;24.90;49.90;;;;;;5056601;28;20464;-88
2022/05/17 08:20:18;;;;;;;7.83;5.10;;;25.00;49.20;;;;;;5067911;28;20479;-87
2022/05/17 08:22:46;;;;;;;10.70;4.50;;;25.30;50.00;;;;;;5060439;28;20468;-88
2022/05/17 08:28:03;;;;;;;6.50;5.00;;;25.60;48.80;;;;;;5069219;28;20439;-88
2022/05/17 08:30:31;;;;;;;5.13;4.70;;;25.70;49.20;;;;;;5073504;28;20497;-87
2022/05/17 08:33:17;;;;;;;5.10;4.70;;;25.90;48.70;;;;;;5049491;28;20466;-88
2022/05/17 08:35:49;;;;;;;6.43;4.60;;;25.70;48.30;;;;;;5066426;28;21280;-88
2022/05/17 08:38:20;;;;;;;5.73;4.43;;;25.60;48.50;;;;;;5051788;28;20460;-87
2022/05/17 08:41:13;;;;;;;8.17;4.60;;;25.60;49.00;;;;;;5070741;28;20439;-87
2022/05/17 08:43:50;;;;;;;5.30;4.23;;;25.80;48.10;;;;;;5083474;28;20477;-88
2022/05/17 08:46:40;;;;;;;5.60;4.50;;;25.70;48.20;;;;;;5072057;28;20443;-87
2022/05/17 08:49:18;;;;;;;4.27;3.87;;;25.90;48.90;;;;;;5085589;28;21154;-88
2022/05/17 08:51:48;;;;;;;5.13;4.20;;;26.10;48.00;;;;;;5056090;28;20941;-87
2022/05/17 08:54:19;;;;;;;5.33;4.30;;;26.20;47.90;;;;;;5044932;28;20452;-87
2022/05/17 08:56:51;;;;;;;5.87;4.13;;;26.40;47.20;;;;;;5060891;28;21231;-87
2022/05/17 08:59:23;;;;;;;9.00;5.13;;;26.60;47.00;;;;;;5086229;28;20460;-87
2022/05/17 09:01:56;;;;;;;5.40;4.57;;;26.70;47.50;;;;;;5088341;28;20454;-87
2022/05/17 09:04:47;;;;;;;5.30;4.80;;;27.10;47.70;;;;;;5068011;28;20663;-87
2022/05/17 09:07:22;;;;;;;7.70;4.43;;;27.30;43.90;;;;;;5060826;28;20457;-86
2022/05/17 09:09:59;;;;;;;7.53;4.40;;;27.50;45.60;;;;;;5069209;28;20437;-88
2022/05/17 09:12:32;;;;;;;9.33;4.03;;;27.70;45.20;;;;;;5056203;28;20478;-88
2022/05/17 09:15:02;;;;;;;5.40;4.13;;;27.40;45.20;;;;;;5086185;28;20453;-87
2022/05/17 09:17:29;;;;;;;4.43;3.90;;;27.60;45.80;;;;;;5071007;28;20908;-88
2022/05/17 09:19:57;;;;;;;11.10;6.13;;;27.90;45.10;;;;;;5038807;28;21113;-87
2022/05/17 09:22:25;;;;;;;7.87;4.27;;;28.20;42.90;;;;;;5070091;28;20464;-88
2022/05/17 09:24:57;;;;;;;7.03;4.33;;;27.80;41.40;;;;;;5048276;28;20444;-88
2022/05/17 09:27:27;;;;;;;6.33;3.97;;;27.60;43.20;;;;;;5073519;28;20538;-88
2022/05/17 09:30:03;;;;;;;8.80;3.67;;;27.50;43.60;;;;;;5067816;28;20482;-86
2022/05/17 09:32:33;;;;;;;4.30;3.90;;;27.40;42.40;;;;;;5067933;28;20463;-88
2022/05/17 09:35:04;;;;;;;9.30;3.93;;;26.40;44.90;;;;;;5045253;28;20443;-88
2022/05/17 09:37:36;;;;;;;5.73;3.63;;;26.60;46.10;;;;;;5090126;28;20478;-88
2022/05/17 09:40:06;;;;;;;6.87;4.37;;;26.90;45.60;;;;;;5056127;28;20474;-88
2022/05/17 09:42:36;;;;;;;7.07;3.33;;;27.00;44.20;;;;;;5053549;28;20495;-88
2022/05/17 09:45:06;;;;;;;6.20;3.77;;;27.30;45.20;;;;;;5089057;28;20550;-88
2022/05/17 09:47:42;;;;;;;4.43;3.30;;;27.60;43.00;;;;;;5071159;28;20440;-88
2022/05/17 09:53:02;;;;;;;5.33;4.10;;;27.90;43.20;;;;;;5062025;28;21010;-87
2022/05/17 09:55:31;;;;;;;5.57;3.90;;;28.00;42.80;;;;;;5088625;28;20523;-88
2022/05/17 09:58:01;;;;;;;4.77;3.40;;;28.20;41.50;;;;;;5051394;28;20901;-88
2022/05/17 10:00:33;;;;;;;4.60;3.70;;;28.60;42.30;;;;;;5052805;28;20463;-88
2022/05/17 10:03:03;;;;;;;4.50;3.70;;;28.80;42.30;;;;;;5054202;28;20463;-88
2022/05/17 10:05:44;;;;;;;3.80;3.50;;;29.20;40.00;;;;;;5038314;28;20471;-88
2022/05/17 10:08:31;;;;;;;4.60;3.10;;;29.50;39.60;;;;;;5086257;28;20455;-88
2022/05/17 10:11:21;;;;;;;4.13;3.33;;;29.50;39.90;;;;;;5053761;28;20439;-87
2022/05/17 10:14:22;;;;;;;4.07;3.57;;;29.30;39.70;;;;;;5039580;28;20479;-88
2022/05/17 10:16:54;;;;;;;5.30;3.53;;;29.40;40.70;;;;;;5073274;28;20438;-88
2022/05/17 10:19:39;;;;;;;6.90;3.20;;;29.30;38.70;;;;;;5077067;28;20467;-88
2022/05/17 10:22:17;;;;;;;4.40;3.27;;;29.60;39.90;;;;;;5051780;28;20855;-88
2022/05/17 10:24:48;;;;;;;8.20;3.33;;;30.00;39.20;;;;;;5072586;28;20500;-88
2022/05/17 10:27:20;;;;;;;8.43;3.07;;;30.30;37.30;;;;;;5060690;28;20882;-88
2022/05/17 10:29:51;;;;;;;3.47;3.00;;;30.00;37.20;;;;;;5072986;28;20451;-88
2022/05/17 10:32:26;;;;;;;6.90;2.70;;;30.30;37.50;;;;;;5087383;28;20480;-88
2022/05/17 10:34:58;;;;;;;3.93;2.77;;;30.60;37.00;;;;;;5068895;28;20563;-88
2022/05/17 10:37:29;;;;;;;4.90;3.33;;;30.60;35.80;;;;;;5087891;28;20451;-88
2022/05/17 10:40:02;;;;;;;5.73;3.20;;;30.40;36.30;;;;;;5067654;28;20552;-88
2022/05/17 10:42:29;;;;;;;8.10;3.30;;;30.00;34.90;;;;;;5051958;28;20467;-88
2022/05/17 10:44:58;;;;;;;4.30;3.40;;;29.80;37.10;;;;;;5057583;28;20604;-88
2022/05/17 10:47:49;;;;;;;4.80;3.27;;;29.80;37.50;;;;;;5072017;28;20462;-87
2022/05/17 10:50:34;;;;;;;3.30;2.93;;;30.00;37.00;;;;;;5055252;28;20455;-88
2022/05/17 10:53:15;;;;;;;4.37;3.57;;;30.10;37.10;;;;;;5055846;28;20462;-88
2022/05/17 10:55:52;;;;;;;7.27;3.17;;;30.10;38.80;;;;;;5058597;28;20530;-88
2022/05/17 10:58:28;;;;;;;3.90;3.27;;;30.40;36.80;;;;;;5058448;28;20450;-88
2022/05/17 11:01:01;;;;;;;3.20;2.90;;;30.40;36.10;;;;;;5089146;28;21243;-87
2022/05/17 11:04:16;;;;;;;3.40;2.60;;;30.70;36.40;;;;;;5043944;28;21040;-87
2022/05/17 11:06:56;;;;;;;3.17;2.30;;;30.80;34.90;;;;;;5091881;28;20459;-88
2022/05/17 11:09:30;;;;;;;4.07;2.83;;;30.90;34.30;;;;;;5057879;28;20444;-88
2022/05/17 11:12:05;;;;;;;4.80;2.43;;;31.00;34.40;;;;;;5072336;28;21065;-88
2022/05/17 11:14:39;;;;;;;6.23;2.57;;;31.10;35.00;;;;;;5072823;28;20461;-88
2022/05/17 11:17:14;;;;;;;6.37;3.10;;;31.10;33.70;;;;;;5089169;28;20451;-88
2022/05/17 11:19:45;;;;;;;3.87;2.57;;;30.90;32.50;;;;;;5088911;28;20474;-88
2022/05/17 11:22:20;;;;;;;2.90;2.70;;;31.00;34.30;;;;;;5062173;28;20472;-88
2022/05/17 11:25:10;;;;;;;4.70;2.70;;;30.80;33.80;;;;;;5067488;28;20450;-87
2022/05/17 11:27:53;;;;;;;4.37;2.90;;;30.60;36.00;;;;;;5089846;28;20455;-88
2022/05/17 11:30:24;;;;;;;3.73;2.20;;;30.90;36.60;;;;;;5076065;28;20448;-88
2022/05/17 11:33:12;;;;;;;3.53;2.70;;;31.00;35.20;;;;;;5048372;28;21003;-87
2022/05/17 11:35:48;;;;;;;3.03;2.73;;;31.40;35.20;;;;;;5070246;28;20455;-88
2022/05/17 11:38:21;;;;;;;5.80;3.00;;;31.70;33.40;;;;;;5073667;28;20457;-85
2022/05/17 11:40:57;;;;;;;5.63;2.77;;;31.80;34.30;;;;;;5075655;28;20528;-88
2022/05/17 11:43:46;;;;;;;4.40;2.83;;;31.70;33.60;;;;;;5047082;28;20486;-88
2022/05/17 11:46:48;;;;;;;3.33;2.87;;;31.50;33.30;;;;;;5058190;28;20681;-87
2022/05/17 11:49:45;;;;;;;3.50;2.60;;;31.10;33.70;;;;;;5078823;28;20687;-85
2022/05/17 11:52:33;;;;;;;3.50;3.20;;;30.80;34.30;;;;;;5073921;28;20486;-88
2022/05/17 11:55:04;;;;;;;4.33;2.60;;;30.70;34.70;;;;;;5070149;28;20443;-88
2022/05/17 11:58:08;;;;;;;3.83;2.97;;;30.40;34.90;;;;;;5076350;28;20448;-88
2022/05/17 12:00:45;;;;;;;3.47;2.47;;;30.40;36.90;;;;;;5056521;28;20593;-89
2022/05/17 12:03:47;;;;;;;3.53;2.70;;;30.50;35.90;;;;;;5090010;28;21057;-88
2022/05/17 12:06:34;;;;;;;3.70;3.30;;;30.50;36.20;;;;;;5069190;28;20474;-89
2022/05/17 12:09:06;;;;;;;3.93;3.00;;;30.60;34.80;;;;;;5085303;28;20632;-88
2022/05/17 12:11:45;;;;;;;3.30;3.00;;;31.10;35.10;;;;;;5065276;28;20496;-89
2022/05/17 12:14:21;;;;;;;3.00;2.80;;;31.40;34.50;;;;;;5087510;28;20447;-88
2022/05/17 12:16:50;;;;;;;3.70;2.47;;;31.50;34.70;;;;;;5091131;28;21211;-87
2022/05/17 12:19:24;;;;;;;5.03;2.43;;;31.40;33.40;;;;;;5054040;28;20508;-88
2022/05/17 12:21:59;;;;;;;4.93;3.00;;;31.20;33.10;;;;;;5081002;28;20430;-88
2022/05/17 12:24:36;;;;;;;3.40;3.10;;;31.10;33.40;;;;;;5053843;28;20451;-88
2022/05/17 12:27:21;;;;;;;2.87;2.67;;;31.00;34.40;;;;;;5072791;28;20454;-88
2022/05/17 12:32:39;;;;;;;3.70;2.60;;;31.00;33.40;;;;;;5069738;28;20491;-88
2022/05/17 12:35:08;;;;;;;3.10;2.70;;;31.10;33.40;;;;;;5062316;28;21049;-88
2022/05/17 12:37:41;;;;;;;2.50;2.30;;;30.70;32.60;;;;;;5055516;28;20466;-88
2022/05/17 12:43:06;;;;;;;4.07;2.93;;;29.90;34.90;;;;;;5070879;28;20482;-88
2022/05/17 12:45:39;;;;;;;6.10;2.50;;;29.80;37.20;;;;;;5070302;28;20455;-88
2022/05/17 12:48:16;;;;;;;6.87;2.60;;;30.00;38.10;;;;;;5056817;28;20535;-88
2022/05/17 12:50:46;;;;;;;3.00;2.80;;;29.70;36.00;;;;;;5055549;28;20443;-87
2022/05/17 12:53:21;;;;;;;4.87;3.00;;;29.60;35.30;;;;;;5051698;28;20634;-89
2022/05/17 12:56:04;;;;;;;2.67;2.47;;;29.30;33.80;;;;;;5070692;28;20456;-88
2022/05/17 12:58:35;;;;;;;4.90;2.80;;;29.20;34.90;;;;;;5056283;28;20466;-88
2022/05/17 13:01:06;;;;;;;2.07;1.90;;;29.40;35.80;;;;;;5071854;28;20510;-89
2022/05/17 13:03:34;;;;;;;2.80;2.07;;;29.40;35.00;;;;;;5087720;28;20463;-88
2022/05/17 13:06:05;;;;;;;3.10;2.33;;;29.50;36.70;;;;;;5067777;28;20556;-88
2022/05/17 13:08:36;;;;;;;5.00;2.63;;;29.60;34.70;;;;;;5062683;28;20447;-89
2022/05/17 13:11:07;;;;;;;3.83;2.50;;;29.40;35.40;;;;;;5057152;28;20447;-88
2022/05/17 13:13:41;;;;;;;4.10;2.63;;;29.30;36.00;;;;;;5088352;28;20549;-88
2022/05/17 13:16:14;;;;;;;7.27;3.03;;;29.30;37.20;;;;;;5046781;28;20904;-89
2022/05/17 13:18:45;;;;;;;4.47;2.77;;;29.30;37.30;;;;;;5088564;28;20443;-88